Time;durP1;ratioP1;P1;durP2;ratioP2;P2;SDS_P1;SDS_P2;PMS_P1;PMS_P2;Temp;Humidity;BMP_temperature;BMP_pressure;BME280_temperature;BME280_humidity;BME280_pressure;Samples;Min_cycle;Max_cycle;Signal;HPM_P1;HPM_P2
2022/08/16 00:00:38;;;;;;;12.40;11.20;;;;;;;21.56;77.98;99786.78;90105;1271;86791;-59
2022/08/16 00:02:50;;;;;;;13.10;11.80;;;;;;;21.64;78.11;99783.48;90085;1271;93752;-59
2022/08/16 00:04:59;;;;;;;13.90;11.40;;;;;;;21.69;78.07;99785.77;90065;1271;81295;-59
2022/08/16 00:07:08;;;;;;;12.30;11.20;;;;;;;21.69;78.18;99778.47;90123;1271;82519;-59
2022/08/16 00:09:17;;;;;;;12.90;11.30;;;;;;;21.70;78.10;99779.50;90100;1272;98475;-59
2022/08/16 00:11:25;;;;;;;13.50;11.10;;;;;;;21.71;78.05;99783.46;90117;1271;87248;-59
2022/08/16 00:13:34;;;;;;;13.20;10.80;;;;;;;21.70;78.00;99783.58;90083;1271;92544;-59
2022/08/16 00:15:47;;;;;;;11.80;10.70;;;;;;;21.65;78.03;99782.77;90084;1272;82313;-59
2022/08/16 00:17:56;;;;;;;12.00;10.80;;;;;;;21.58;78.21;99784.70;90126;1271;82952;-60
2022/08/16 00:20:08;;;;;;;11.60;10.50;;;;;;;21.53;78.13;99781.83;90092;1271;98438;-60
2022/08/16 00:22:17;;;;;;;12.20;10.90;;;;;;;21.50;78.05;99783.54;90105;1272;87501;-60
2022/08/16 00:24:28;;;;;;;12.20;11.10;;;;;;;21.47;78.15;99786.34;90108;1272;91976;-59
2022/08/16 00:26:36;;;;;;;11.90;10.70;;;;;;;21.42;78.28;99786.07;90084;1271;81312;-59
2022/08/16 00:28:45;;;;;;;11.90;10.40;;;;;;;21.39;78.37;99789.82;90093;1272;82597;-59
2022/08/16 00:30:54;;;;;;;11.90;10.00;;;;;;;21.35;78.39;99789.52;90112;1272;98772;-59
2022/08/16 00:33:03;;;;;;;12.90;10.80;;;;;;;21.33;78.35;99791.73;90110;1272;88707;-59
2022/08/16 00:35:18;;;;;;;11.40;10.40;;;;;;;21.28;78.36;99791.46;90115;1272;92906;-59
2022/08/16 00:37:28;;;;;;;12.00;10.30;;;;;;;21.24;78.65;99791.40;90067;1272;79024;-59
2022/08/16 00:39:36;;;;;;;11.50;10.30;;;;;;;21.20;78.67;99796.13;90103;1270;81400;-59
2022/08/16 00:41:48;;;;;;;12.30;10.60;;;;;;;21.15;78.67;99796.62;90124;1271;98301;-59
2022/08/16 00:43:57;;;;;;;13.30;10.90;;;;;;;21.12;78.89;99792.77;90103;1272;86844;-59
2022/08/16 00:46:14;;;;;;;11.50;10.40;;;;;;;21.05;78.95;99794.96;90082;1271;94159;-59
2022/08/16 00:48:23;;;;;;;12.50;11.20;;;;;;;21.02;78.93;99795.85;90091;1272;80713;-59
2022/08/16 00:50:35;;;;;;;11.00;9.90;;;;;;;20.99;78.93;99802.55;90128;1272;82517;-59
2022/08/16 00:52:44;;;;;;;11.90;10.80;;;;;;;20.96;79.07;99799.07;90151;1271;98879;-59
2022/08/16 00:54:53;;;;;;;12.20;11.00;;;;;;;20.93;79.05;99799.23;90120;1272;87810;-59
2022/08/16 00:57:03;;;;;;;12.80;10.60;;;;;;;20.90;79.20;99805.81;90100;1270;94432;-59
2022/08/16 00:59:15;;;;;;;12.80;11.70;;;;;;;20.88;79.32;99801.85;90094;1273;82412;-59
2022/08/16 01:01:24;;;;;;;13.00;10.40;;;;;;;20.87;79.66;99796.20;90125;1271;82165;-59
2022/08/16 01:03:34;;;;;;;12.00;10.70;;;;;;;20.87;79.71;99792.58;90112;1271;98517;-59
2022/08/16 01:05:43;;;;;;;12.40;11.00;;;;;;;20.88;79.61;99793.08;90104;1272;87650;-59
2022/08/16 01:07:52;;;;;;;14.40;11.80;;;;;;;20.86;79.95;99795.77;90090;1271;95521;-60
2022/08/16 01:10:01;;;;;;;12.10;10.90;;;;;;;20.97;80.17;99794.40;90113;1272;82086;-59
2022/08/16 01:12:11;;;;;;;12.10;10.90;;;;;;;21.03;80.19;99793.81;90116;1271;81524;-59
2022/08/16 01:14:24;;;;;;;14.20;11.70;;;;;;;21.05;80.13;99795.30;90145;1271;98449;-59
2022/08/16 01:16:34;;;;;;;13.10;11.90;;;;;;;21.04;80.30;99792.56;90144;1272;88480;-58
2022/08/16 01:18:48;;;;;;;12.80;11.70;;;;;;;21.14;80.49;99788.38;90044;1270;92148;-59
2022/08/16 01:21:06;;;;;;;13.20;12.00;;;;;;;21.21;80.19;99788.25;90085;1270;81117;-58
2022/08/16 01:23:27;;;;;;;12.80;11.60;;;;;;;21.23;80.21;99789.30;90137;1271;81426;-59
2022/08/16 01:25:42;;;;;;;13.20;12.00;;;;;;;21.25;80.05;99786.67;90124;1271;98382;-59
2022/08/16 01:27:55;;;;;;;12.60;11.40;;;;;;;21.24;80.23;99784.58;90109;1272;88405;-60
2022/08/16 01:30:10;;;;;;;13.00;11.30;;;;;;;21.21;80.17;99784.30;90121;1270;94347;-59
2022/08/16 01:32:18;;;;;;;12.10;11.10;;;;;;;21.17;80.11;99785.13;90134;1272;79588;-58
2022/08/16 01:34:27;;;;;;;12.00;10.90;;;;;;;21.15;80.20;99784.43;90126;1272;82017;-58
2022/08/16 01:36:37;;;;;;;12.50;11.20;;;;;;;21.12;80.16;99783.48;90121;1272;98685;-59
2022/08/16 01:38:50;;;;;;;11.40;10.40;;;;;;;21.09;80.16;99781.48;90118;1270;86731;-59
2022/08/16 01:41:04;;;;;;;12.00;10.80;;;;;;;21.05;80.16;99777.77;90085;1272;95614;-58
2022/08/16 01:43:12;;;;;;;12.60;11.30;;;;;;;21.03;80.10;99772.23;90105;1272;81688;-58
2022/08/16 01:45:22;;;;;;;11.30;10.20;;;;;;;20.98;80.16;99777.00;90148;1271;80567;-58
2022/08/16 01:47:32;;;;;;;12.00;10.60;;;;;;;20.91;80.13;99771.39;90123;1272;98283;-58
2022/08/16 01:49:43;;;;;;;12.70;11.00;;;;;;;20.89;80.18;99774.30;90128;1271;87887;-58
2022/08/16 01:51:59;;;;;;;12.10;10.80;;;;;;;20.85;80.24;99770.94;90107;1271;94457;-58
2022/08/16 01:54:08;;;;;;;11.70;10.60;;;;;;;20.82;80.26;99766.42;90087;1272;81905;-58
2022/08/16 01:56:17;;;;;;;14.50;10.10;;;;;;;20.81;80.13;99770.21;90148;1272;81399;-59
2022/08/16 01:58:27;;;;;;;14.10;10.70;;;;;;;20.82;80.27;99767.53;90099;1272;96931;-59
2022/08/16 02:00:36;;;;;;;12.10;10.40;;;;;;;20.81;80.21;99766.47;90119;1272;87529;-59
2022/08/16 02:02:45;;;;;;;12.20;10.90;;;;;;;20.80;80.35;99764.88;90078;1271;95013;-59
2022/08/16 02:04:54;;;;;;;10.70;9.70;;;;;;;20.78;80.19;99757.41;90091;1271;81288;-59
2022/08/16 02:07:07;;;;;;;11.60;10.30;;;;;;;20.74;80.30;99758.44;90129;1271;80281;-59
2022/08/16 02:09:18;;;;;;;10.70;9.60;;;;;;;20.70;80.30;99750.97;90110;1272;98425;-59
2022/08/16 02:11:27;;;;;;;12.10;11.10;;;;;;;20.66;80.26;99749.86;90127;1272;86976;-58
2022/08/16 02:13:36;;;;;;;16.00;10.50;;;;;;;20.63;80.30;99749.63;90088;1271;94278;-58
2022/08/16 02:15:45;;;;;;;11.70;10.50;;;;;;;20.63;80.36;99748.54;90100;1272;80055;-59
2022/08/16 02:17:54;;;;;;;11.60;10.40;;;;;;;20.58;80.56;99744.63;90118;1271;81317;-58
2022/08/16 02:20:03;;;;;;;12.30;11.10;;;;;;;20.52;80.64;99739.23;90138;1272;95817;-58
2022/08/16 02:22:16;;;;;;;11.50;10.40;;;;;;;20.50;80.64;99736.16;90102;1271;88664;-59
2022/08/16 02:24:25;;;;;;;12.20;11.00;;;;;;;20.42;80.91;99739.38;90068;1271;94037;-59
2022/08/16 02:26:34;;;;;;;11.90;10.30;;;;;;;20.40;80.82;99737.88;90087;1271;80746;-59
2022/08/16 02:28:44;;;;;;;11.10;10.10;;;;;;;20.38;80.87;99737.05;90144;1272;82247;-59
2022/08/16 02:30:53;;;;;;;12.20;11.00;;;;;;;20.38;80.58;99734.90;90101;1272;99566;-59
2022/08/16 02:33:02;;;;;;;11.50;10.40;;;;;;;20.38;80.79;99739.08;90102;1271;87440;-59
2022/08/16 02:35:12;;;;;;;11.90;10.80;;;;;;;20.37;80.68;99740.50;90093;1271;93968;-59
2022/08/16 02:37:20;;;;;;;12.00;10.70;;;;;;;20.35;80.78;99745.27;90089;1271;81236;-58
2022/08/16 02:39:29;;;;;;;11.80;10.50;;;;;;;20.35;80.84;99748.08;90123;1272;81699;-59
2022/08/16 02:41:41;;;;;;;11.50;10.30;;;;;;;20.35;80.86;99747.46;90096;1270;98324;-59
2022/08/16 02:43:50;;;;;;;11.20;10.20;;;;;;;20.36;80.90;99744.46;90114;1271;86803;-60
2022/08/16 02:45:59;;;;;;;11.90;10.70;;;;;;;20.35;81.04;99740.92;90072;1270;95072;-59
2022/08/16 02:48:08;;;;;;;11.20;10.00;;;;;;;20.32;81.18;99735.77;90086;1271;80250;-59
2022/08/16 02:50:17;;;;;;;12.10;10.00;;;;;;;20.31;81.06;99741.09;90092;1272;81977;-59
2022/08/16 02:52:26;;;;;;;11.60;10.00;;;;;;;20.30;81.17;99734.50;90083;1272;96852;-60
2022/08/16 02:54:35;;;;;;;12.20;10.20;;;;;;;20.27;81.11;99733.60;90129;1270;87469;-60
2022/08/16 02:56:45;;;;;;;11.60;9.90;;;;;;;20.28;81.26;99731.86;90082;1271;93637;-61
2022/08/16 02:58:55;;;;;;;11.60;9.80;;;;;;;20.30;81.23;99735.27;90094;1272;81916;-60
2022/08/16 03:01:03;;;;;;;10.90;9.80;;;;;;;20.31;81.06;99731.75;90132;1271;81322;-58
2022/08/16 03:03:12;;;;;;;11.20;10.00;;;;;;;20.28;81.33;99735.86;90108;1272;99074;-60
2022/08/16 03:05:22;;;;;;;11.00;9.90;;;;;;;20.25;81.29;99737.75;90093;1272;87598;-60
2022/08/16 03:07:31;;;;;;;11.00;9.70;;;;;;;20.21;81.21;99739.27;90104;1271;94447;-60
2022/08/16 03:09:40;;;;;;;11.10;10.10;;;;;;;20.20;81.40;99744.41;90081;1272;81513;-59
2022/08/16 03:11:49;;;;;;;11.60;10.50;;;;;;;20.20;81.42;99746.33;90103;1272;79933;-59
2022/08/16 03:13:58;;;;;;;11.00;10.00;;;;;;;20.22;81.58;99746.60;90098;1271;97633;-59
2022/08/16 03:16:07;;;;;;;12.20;11.00;;;;;;;20.22;81.55;99744.23;90086;1271;88482;-59
2022/08/16 03:18:16;;;;;;;11.90;10.70;;;;;;;20.22;81.46;99738.22;90097;1272;94168;-59
2022/08/16 03:20:25;;;;;;;12.00;10.80;;;;;;;20.24;81.63;99739.77;90082;1271;82223;-59
2022/08/16 03:22:34;;;;;;;12.10;11.00;;;;;;;20.25;81.65;99744.68;90118;1272;81398;-59
2022/08/16 03:24:43;;;;;;;12.40;11.20;;;;;;;20.23;81.67;99742.63;90114;1272;99768;-59
2022/08/16 03:26:52;;;;;;;11.40;10.30;;;;;;;20.21;81.64;99747.44;90134;1272;88826;-59
2022/08/16 03:29:01;;;;;;;11.00;9.70;;;;;;;20.20;81.57;99745.73;90078;1272;94033;-59
2022/08/16 03:31:10;;;;;;;12.30;11.10;;;;;;;20.14;81.65;99749.31;90098;1272;80107;-59
2022/08/16 03:33:18;;;;;;;11.20;10.20;;;;;;;20.08;81.79;99755.27;90078;1271;82456;-59
2022/08/16 03:35:31;;;;;;;13.20;11.60;;;;;;;20.06;81.67;99759.87;90120;1272;99223;-59
2022/08/16 03:37:43;;;;;;;11.90;10.80;;;;;;;20.03;81.80;99763.85;90099;1270;87561;-59
2022/08/16 03:39:51;;;;;;;12.20;11.00;;;;;;;20.04;81.71;99769.79;90057;1271;94354;-59
2022/08/16 03:42:00;;;;;;;11.80;10.50;;;;;;;20.06;81.79;99765.41;90082;1272;80383;-59
2022/08/16 03:44:09;;;;;;;13.10;11.60;;;;;;;20.09;81.81;99768.83;90104;1272;81772;-59
2022/08/16 03:46:19;;;;;;;12.70;11.10;;;;;;;20.09;81.98;99767.94;90102;1270;98433;-59
2022/08/16 03:48:33;;;;;;;12.80;11.30;;;;;;;20.10;81.90;99769.55;89831;1272;87309;-59
2022/08/16 03:50:42;;;;;;;12.60;11.40;;;;;;;20.10;82.01;99767.73;90082;1272;94708;-59
2022/08/16 03:52:51;;;;;;;11.60;10.50;;;;;;;20.09;82.04;99765.31;90078;1270;80223;-59
2022/08/16 03:54:59;;;;;;;12.40;11.10;;;;;;;20.12;82.06;99770.26;90111;1272;82738;-59
2022/08/16 03:57:08;;;;;;;12.10;10.90;;;;;;;20.12;82.00;99774.16;90107;1271;99837;-59
2022/08/16 03:59:25;;;;;;;13.70;12.20;;;;;;;20.12;82.18;99776.90;90105;1271;87398;-59
2022/08/16 04:01:34;;;;;;;12.90;11.50;;;;;;;20.09;82.17;99779.08;89927;1274;92607;-59
2022/08/16 04:03:43;;;;;;;12.70;11.20;;;;;;;20.11;82.14;99779.31;90078;1271;82326;-59
2022/08/16 04:05:52;;;;;;;13.40;12.00;;;;;;;20.13;82.10;99779.27;90126;1271;81912;-59
2022/08/16 04:08:22;;;;;;;12.60;11.10;;;;;;;20.15;82.33;99775.86;90124;1272;97589;-60
2022/08/16 04:10:31;;;;;;;15.30;11.20;;;;;;;20.20;82.22;99774.46;90086;1272;88301;-59
2022/08/16 04:12:41;;;;;;;13.40;12.10;;;;;;;20.24;82.15;99773.19;90065;1271;95442;-59
2022/08/16 04:14:50;;;;;;;13.60;12.20;;;;;;;20.29;82.49;99772.90;90088;1271;81703;-59
2022/08/16 04:16:59;;;;;;;14.20;12.60;;;;;;;20.36;82.53;99774.08;90115;1272;82039;-59
2022/08/16 04:19:08;;;;;;;14.70;12.40;;;;;;;20.42;82.44;99775.81;90090;1271;99843;-59
2022/08/16 04:21:17;;;;;;;13.00;11.50;;;;;;;20.47;82.50;99777.58;90130;1270;86501;-59
2022/08/16 04:23:26;;;;;;;15.80;11.80;;;;;;;20.58;82.68;99782.89;90001;1273;95464;-59
2022/08/16 04:25:35;;;;;;;14.80;13.00;;;;;;;20.70;82.71;99784.41;90059;1272;82154;-59
2022/08/16 04:27:44;;;;;;;15.30;13.60;;;;;;;20.83;82.92;99784.98;90115;1272;82650;-59
2022/08/16 04:29:53;;;;;;;14.80;12.40;;;;;;;20.99;83.03;99785.67;90082;1271;97547;-59
2022/08/16 04:32:02;;;;;;;14.60;12.90;;;;;;;21.13;82.88;99784.80;90101;1271;88152;-59
2022/08/16 04:34:13;;;;;;;13.60;12.00;;;;;;;21.25;82.87;99784.36;90045;1270;94774;-59
2022/08/16 04:36:22;;;;;;;13.90;12.60;;;;;;;21.38;82.82;99787.23;90073;1271;80696;-59
2022/08/16 04:38:30;;;;;;;14.20;12.70;;;;;;;21.51;82.52;99786.41;90107;1271;81780;-59
2022/08/16 04:40:39;;;;;;;14.80;12.60;;;;;;;21.62;82.41;99783.32;90103;1272;99214;-59
2022/08/16 04:42:49;;;;;;;14.10;12.60;;;;;;;21.70;82.46;99791.55;90108;1272;88254;-59
2022/08/16 04:44:58;;;;;;;14.90;12.60;;;;;;;21.80;82.09;99791.80;90083;1270;93880;-59
2022/08/16 04:47:07;;;;;;;14.60;12.20;;;;;;;21.83;82.15;99793.23;90065;1272;82466;-59
2022/08/16 04:49:16;;;;;;;15.30;11.90;;;;;;;21.88;82.01;99792.48;90119;1271;81551;-59
2022/08/16 04:51:25;;;;;;;14.40;12.50;;;;;;;21.93;81.93;99794.45;90107;1271;97536;-59
2022/08/16 04:53:34;;;;;;;14.10;12.50;;;;;;;21.97;81.69;99792.64;90086;1272;87820;-59
2022/08/16 04:55:43;;;;;;;14.00;12.10;;;;;;;21.94;81.65;99790.45;90091;1271;94822;-59
2022/08/16 04:57:55;;;;;;;13.60;12.20;;;;;;;21.99;81.56;99794.12;90068;1271;81438;-59
2022/08/16 05:00:05;;;;;;;14.00;12.60;;;;;;;22.02;81.39;99795.55;90079;1271;79812;-59
2022/08/16 05:02:14;;;;;;;13.80;12.20;;;;;;;22.06;81.38;99791.02;90107;1271;98918;-59
2022/08/16 05:04:23;;;;;;;13.60;12.20;;;;;;;22.07;81.28;99796.19;90090;1272;88445;-59
2022/08/16 05:06:32;;;;;;;14.00;12.60;;;;;;;22.09;81.42;99793.98;90053;1271;95086;-59
2022/08/16 05:08:41;;;;;;;13.00;11.60;;;;;;;22.13;81.48;99797.89;90054;1272;81806;-59
2022/08/16 05:10:50;;;;;;;12.80;11.60;;;;;;;22.15;81.38;99797.10;90131;1272;81983;-59
2022/08/16 05:12:59;;;;;;;14.50;12.60;;;;;;;22.20;81.42;99800.72;90094;1271;98279;-59
2022/08/16 05:15:11;;;;;;;13.60;12.20;;;;;;;22.28;81.31;99802.67;90108;1270;87196;-60
2022/08/16 05:17:20;;;;;;;12.60;11.30;;;;;;;22.30;81.23;99803.43;90062;1271;94780;-59
2022/08/16 05:19:29;;;;;;;13.60;12.20;;;;;;;22.37;81.18;99802.86;90057;1270;81288;-59
2022/08/16 05:21:38;;;;;;;16.20;12.70;;;;;;;22.44;81.12;99799.92;90118;1270;82777;-59
2022/08/16 05:23:47;;;;;;;14.20;11.50;;;;;;;22.51;81.25;99802.30;90098;1270;98268;-59
2022/08/16 05:25:55;;;;;;;13.80;12.50;;;;;;;22.62;81.02;99802.05;90113;1272;88800;-59
2022/08/16 05:28:04;;;;;;;13.50;12.10;;;;;;;22.70;80.83;99805.17;90083;1271;94946;-59
2022/08/16 05:30:16;;;;;;;13.40;12.10;;;;;;;22.90;80.67;99805.41;90086;1272;79455;-59
2022/08/16 05:32:25;;;;;;;13.40;12.10;;;;;;;23.05;80.38;99808.39;90111;1271;82592;-59
2022/08/16 05:34:33;;;;;;;12.90;11.60;;;;;;;23.18;80.21;99805.32;90108;1270;99215;-59
2022/08/16 05:36:43;;;;;;;14.10;12.70;;;;;;;23.31;79.82;99800.27;90151;1270;87146;-60
2022/08/16 05:38:51;;;;;;;16.00;12.40;;;;;;;23.36;79.64;99802.61;90001;1272;94524;-60
2022/08/16 05:41:02;;;;;;;13.10;11.90;;;;;;;23.42;79.33;99798.95;90116;1270;78475;-59
2022/08/16 05:43:11;;;;;;;13.60;12.30;;;;;;;23.44;78.94;99800.96;90126;1271;82241;-60
2022/08/16 05:45:21;;;;;;;13.80;12.40;;;;;;;23.40;78.78;99799.85;90125;1271;98554;-60
2022/08/16 05:47:29;;;;;;;13.30;12.10;;;;;;;23.41;78.67;99800.73;90125;1271;88727;-59
2022/08/16 05:49:38;;;;;;;13.70;12.00;;;;;;;23.45;78.37;99801.85;90108;1270;94638;-60
2022/08/16 05:51:48;;;;;;;13.20;12.00;;;;;;;23.46;78.24;99800.36;90123;1271;81818;-59
2022/08/16 05:53:57;;;;;;;15.00;11.60;;;;;;;23.52;78.20;99801.52;90120;1270;83072;-59
2022/08/16 05:56:07;;;;;;;13.50;12.20;;;;;;;23.57;77.99;99801.52;90123;1271;98954;-60
2022/08/16 05:58:15;;;;;;;15.90;14.30;;;;;;;23.66;77.77;99800.39;90114;1271;87928;-60
2022/08/16 06:00:25;;;;;;;15.30;13.60;;;;;;;23.74;77.62;99802.98;90098;1270;94394;-60
2022/08/16 06:02:33;;;;;;;13.30;12.00;;;;;;;23.76;77.49;99804.66;90118;1271;81356;-60
2022/08/16 06:04:42;;;;;;;14.80;12.40;;;;;;;23.75;77.30;99801.19;90138;1270;82040;-60
2022/08/16 06:06:51;;;;;;;12.80;11.50;;;;;;;23.77;77.16;99799.90;90150;1270;98900;-60
2022/08/16 06:09:00;;;;;;;12.60;11.30;;;;;;;23.72;76.94;99801.83;90115;1271;86624;-60
2022/08/16 06:11:10;;;;;;;13.70;12.40;;;;;;;23.66;76.79;99800.88;90127;1270;94742;-60
2022/08/16 06:13:19;;;;;;;13.30;12.00;;;;;;;23.63;76.60;99805.11;90098;1271;79747;-60
2022/08/16 06:15:28;;;;;;;13.40;12.10;;;;;;;23.60;76.41;99804.98;90118;1270;80860;-60
2022/08/16 06:17:36;;;;;;;20.40;18.50;;;;;;;23.61;76.23;99803.91;90117;1270;98104;-60
2022/08/16 06:19:45;;;;;;;13.80;12.40;;;;;;;23.63;76.26;99802.35;90109;1270;88530;-60
2022/08/16 06:21:54;;;;;;;15.70;14.20;;;;;;;23.60;76.16;99805.19;90093;1270;94310;-60
2022/08/16 06:24:04;;;;;;;18.10;15.00;;;;;;;23.58;76.15;99806.30;90106;1271;82378;-60
2022/08/16 06:26:12;;;;;;;17.80;15.90;;;;;;;23.59;76.23;99806.30;90133;1270;81754;-60
2022/08/16 06:28:21;;;;;;;16.00;14.40;;;;;;;23.64;76.08;99803.38;90110;1271;98290;-60
2022/08/16 06:30:31;;;;;;;17.30;14.80;;;;;;;23.69;76.00;99804.94;90115;1270;88472;-60
2022/08/16 06:32:41;;;;;;;19.70;17.30;;;;;;;23.70;76.04;99809.09;90079;1271;94049;-60
2022/08/16 06:34:50;;;;;;;20.50;17.40;;;;;;;23.76;75.93;99809.58;90081;1270;80408;-60
2022/08/16 06:36:58;;;;;;;24.10;18.80;;;;;;;23.80;75.80;99809.85;90121;1272;81114;-60
2022/08/16 06:39:06;;;;;;;26.60;21.70;;;;;;;23.90;75.66;99807.79;90131;1271;99096;-60
2022/08/16 06:41:15;;;;;;;24.80;20.50;;;;;;;23.96;75.61;99809.20;90138;1271;86647;-60
2022/08/16 06:43:23;;;;;;;17.40;15.70;;;;;;;24.07;75.57;99812.90;90077;1270;95199;-60
2022/08/16 06:45:36;;;;;;;13.30;11.80;;;;;;;24.16;75.29;99814.77;90102;1271;79909;-60
2022/08/16 06:47:45;;;;;;;17.10;12.60;;;;;;;24.27;75.01;99814.96;90036;1272;83242;-60
2022/08/16 06:49:54;;;;;;;15.10;13.30;;;;;;;24.30;74.73;99812.79;90117;1271;98939;-60
2022/08/16 06:52:03;;;;;;;19.20;15.70;;;;;;;24.37;74.65;99813.26;90107;1271;88498;-60
2022/08/16 06:54:12;;;;;;;24.20;21.60;;;;;;;24.45;74.63;99813.55;90114;1271;94354;-60
2022/08/16 06:56:21;;;;;;;20.30;18.20;;;;;;;24.45;74.79;99809.63;90080;1272;80672;-60
2022/08/16 06:58:30;;;;;;;19.20;16.70;;;;;;;24.54;74.54;99815.16;90107;1271;82139;-60
2022/08/16 07:00:40;;;;;;;15.70;14.10;;;;;;;24.62;74.30;99817.76;90115;1271;100021;-60
2022/08/16 07:02:49;;;;;;;16.30;14.50;;;;;;;24.69;74.10;99820.59;90118;1270;87453;-59
2022/08/16 07:04:58;;;;;;;29.00;26.10;;;;;;;24.83;73.88;99822.80;90094;1271;94999;-59
2022/08/16 07:07:07;;;;;;;15.30;13.80;;;;;;;24.94;73.76;99819.63;90101;1272;78056;-60
2022/08/16 07:09:16;;;;;;;13.50;12.20;;;;;;;25.00;73.63;99815.39;90126;1271;82455;-60
2022/08/16 07:11:25;;;;;;;14.60;13.30;;;;;;;25.09;73.63;99813.70;90117;1272;99910;-60
2022/08/16 07:13:34;;;;;;;15.90;12.30;;;;;;;25.24;73.49;99814.27;90107;1271;88254;-59
2022/08/16 07:15:43;;;;;;;13.80;12.20;;;;;;;25.35;73.07;99813.31;90084;1270;94802;-59
2022/08/16 07:17:52;;;;;;;14.40;12.10;;;;;;;25.61;72.64;99811.25;90081;1271;80250;-59
2022/08/16 07:20:01;;;;;;;15.90;14.20;;;;;;;25.95;72.44;99811.61;90114;1272;80376;-59
2022/08/16 07:22:10;;;;;;;15.10;13.00;;;;;;;26.69;72.52;99811.94;90109;1270;99227;-59
2022/08/16 07:24:19;;;;;;;12.70;10.60;;;;;;;27.65;71.76;99814.70;90102;1270;89252;-60
2022/08/16 07:26:28;;;;;;;11.50;10.40;;;;;;;28.61;70.34;99809.97;90116;1271;94991;-60
2022/08/16 07:28:37;;;;;;;11.30;10.20;;;;;;;29.31;68.77;99813.91;90017;1272;79442;-60
2022/08/16 07:30:48;;;;;;;13.50;12.10;;;;;;;30.00;68.55;99810.99;90125;1270;82452;-60
2022/08/16 07:32:57;;;;;;;12.90;10.50;;;;;;;30.72;67.43;99811.99;90114;1270;99199;-60
2022/08/16 07:35:06;;;;;;;12.30;10.70;;;;;;;31.02;65.74;99809.24;90111;1270;87633;-60
2022/08/16 07:37:15;;;;;;;14.20;12.80;;;;;;;31.47;64.51;99804.94;90102;1270;93989;-60
2022/08/16 07:39:24;;;;;;;11.80;10.50;;;;;;;31.99;63.25;99797.85;90086;1272;80970;-60
2022/08/16 07:41:34;;;;;;;10.80;9.50;;;;;;;32.36;62.37;99790.31;90139;1270;82154;-60
2022/08/16 07:43:43;;;;;;;11.20;10.10;;;;;;;32.95;61.13;99790.59;90097;1270;99322;-60
2022/08/16 07:45:52;;;;;;;10.40;9.20;;;;;;;33.42;60.96;99793.81;90135;1270;88637;-60
2022/08/16 07:48:00;;;;;;;20.60;18.00;;;;;;;34.29;60.49;99793.29;90088;1270;94305;-60
2022/08/16 07:50:12;;;;;;;11.80;10.60;;;;;;;34.92;58.87;99793.73;90108;1270;79862;-60
2022/08/16 07:52:21;;;;;;;10.50;9.40;;;;;;;35.25;57.77;99795.54;90103;1271;82404;-60
2022/08/16 07:54:29;;;;;;;9.70;8.80;;;;;;;35.33;56.21;99799.25;90096;1270;99765;-60
2022/08/16 07:56:38;;;;;;;12.90;9.20;;;;;;;34.68;54.82;99792.73;90128;1270;88064;-60
2022/08/16 07:58:47;;;;;;;9.40;8.50;;;;;;;34.11;54.58;99792.00;90096;1271;94134;-60
2022/08/16 08:00:56;;;;;;;10.20;9.10;;;;;;;33.64;54.60;99792.77;90096;1270;79796;-60
2022/08/16 08:03:06;;;;;;;10.30;9.00;;;;;;;33.39;55.02;99792.04;90128;1270;83044;-61
2022/08/16 08:05:15;;;;;;;9.80;9.00;;;;;;;33.30;55.02;99791.70;90129;1271;98933;-60
2022/08/16 08:07:24;;;;;;;9.70;8.80;;;;;;;33.25;54.94;99792.41;90135;1271;87824;-60
2022/08/16 08:09:33;;;;;;;12.70;10.30;;;;;;;33.00;54.51;99794.27;90107;1271;94817;-60
2022/08/16 08:11:44;;;;;;;10.00;9.00;;;;;;;32.67;54.44;99796.83;90094;1270;80064;-60
2022/08/16 08:13:53;;;;;;;10.90;9.40;;;;;;;32.38;54.80;99797.27;90024;1273;82089;-60
2022/08/16 08:16:02;;;;;;;11.10;9.20;;;;;;;32.36;54.87;99798.40;90097;1271;98888;-60
2022/08/16 08:18:11;;;;;;;10.40;9.40;;;;;;;32.32;54.94;99803.06;90123;1272;88808;-60
2022/08/16 08:20:26;;;;;;;10.70;8.90;;;;;;;32.13;55.31;99800.83;90098;1271;93805;-60
2022/08/16 08:22:35;;;;;;;12.70;10.70;;;;;;;32.64;55.00;99806.14;90109;1272;80021;-60
2022/08/16 08:24:45;;;;;;;13.80;10.20;;;;;;;32.65;54.59;99798.36;90116;1270;82703;-60
2022/08/16 08:26:54;;;;;;;10.20;9.20;;;;;;;32.35;54.46;99796.29;90105;1271;99097;-60
2022/08/16 08:29:04;;;;;;;10.60;9.40;;;;;;;32.06;54.30;99802.79;90113;1272;87954;-60
2022/08/16 08:31:13;;;;;;;11.20;10.00;;;;;;;31.47;54.11;99805.66;90097;1272;93988;-60
2022/08/16 08:33:22;;;;;;;12.10;10.90;;;;;;;31.44;53.71;99809.73;90111;1271;79277;-60
2022/08/16 08:35:31;;;;;;;12.80;10.00;;;;;;;31.38;53.79;99811.35;90123;1272;82650;-60
2022/08/16 08:37:41;;;;;;;17.60;13.60;;;;;;;31.37;53.43;99809.39;90128;1270;99308;-60
2022/08/16 08:39:50;;;;;;;12.10;10.00;;;;;;;31.35;53.62;99816.02;90124;1270;88988;-60
2022/08/16 08:41:59;;;;;;;10.90;9.80;;;;;;;31.08;54.23;99815.45;90095;1271;93979;-60
2022/08/16 08:44:08;;;;;;;19.50;13.30;;;;;;;31.00;54.53;99821.20;90082;1271;79713;-60
2022/08/16 08:46:16;;;;;;;21.50;11.90;;;;;;;31.03;54.97;99814.95;90115;1272;82094;-60
2022/08/16 08:48:25;;;;;;;24.30;11.90;;;;;;;31.04;54.81;99824.14;90131;1271;99370;-60
2022/08/16 08:50:35;;;;;;;24.80;13.10;;;;;;;31.03;55.05;99824.60;90123;1271;87858;-60
2022/08/16 08:52:44;;;;;;;24.10;12.40;;;;;;;31.04;54.79;99827.20;90086;1271;94900;-60
2022/08/16 08:54:52;;;;;;;28.50;12.90;;;;;;;30.98;54.78;99827.16;90076;1272;79763;-60
2022/08/16 08:57:02;;;;;;;42.00;20.40;;;;;;;31.07;54.41;99825.95;90148;1272;82447;-60
2022/08/16 08:59:12;;;;;;;32.00;17.20;;;;;;;31.17;54.02;99823.32;90095;1271;98276;-60
2022/08/16 09:01:27;;;;;;;28.20;13.90;;;;;;;31.41;53.53;99825.75;90135;1272;89207;-60
2022/08/16 09:03:37;;;;;;;17.00;10.70;;;;;;;31.49;54.04;99822.04;90088;1271;93821;-60
2022/08/16 09:05:46;;;;;;;36.10;16.00;;;;;;;31.52;53.55;99822.53;90122;1271;80681;-60
2022/08/16 09:07:55;;;;;;;18.40;11.10;;;;;;;31.58;53.44;99819.89;90105;1272;82479;-60
2022/08/16 09:10:05;;;;;;;30.70;12.20;;;;;;;31.93;53.51;99818.23;90137;1270;98219;-60
2022/08/16 09:12:17;;;;;;;20.80;13.80;;;;;;;32.47;52.85;99818.84;90124;1270;88074;-60
2022/08/16 09:14:25;;;;;;;14.20;11.30;;;;;;;32.97;51.72;99819.54;90118;1270;95593;-60
2022/08/16 09:16:33;;;;;;;11.30;10.00;;;;;;;33.47;50.95;99819.17;90101;1270;78147;-60
2022/08/16 09:18:42;;;;;;;13.50;9.10;;;;;;;33.98;50.66;99816.16;90150;1270;82101;-60
2022/08/16 09:20:52;;;;;;;9.60;8.50;;;;;;;34.45;50.21;99812.83;90096;1270;99894;-60
2022/08/16 09:23:02;;;;;;;16.10;10.80;;;;;;;34.67;49.07;99813.77;90131;1270;88390;-61
2022/08/16 09:25:12;;;;;;;20.60;17.60;;;;;;;34.62;48.21;99817.39;90104;1271;94332;-61
2022/08/16 09:27:21;;;;;;;18.50;11.80;;;;;;;34.59;47.42;99816.81;90120;1270;78617;-61
2022/08/16 09:29:30;;;;;;;15.30;10.80;;;;;;;34.28;47.89;99823.88;90125;1270;81332;-61
2022/08/16 09:31:40;;;;;;;14.00;11.20;;;;;;;34.31;48.58;99824.36;90130;1270;97784;-61
2022/08/16 09:33:48;;;;;;;12.30;10.00;;;;;;;34.40;47.90;99824.26;90128;1270;88027;-61
2022/08/16 09:35:57;;;;;;;11.90;9.80;;;;;;;34.20;47.90;99818.70;90122;1271;93897;-59
2022/08/16 09:38:06;;;;;;;18.60;13.70;;;;;;;34.19;47.52;99816.84;90098;1270;79866;-59
2022/08/16 09:40:16;;;;;;;19.70;17.60;;;;;;;34.18;47.28;99817.69;90139;1270;82446;-60
2022/08/16 09:42:25;;;;;;;26.00;19.90;;;;;;;34.08;46.66;99818.86;90129;1270;98314;-60
2022/08/16 09:44:34;;;;;;;17.80;15.90;;;;;;;34.06;46.62;99818.92;90115;1271;88704;-59
2022/08/16 09:46:43;;;;;;;12.80;11.40;;;;;;;33.94;46.58;99816.92;90116;1270;94165;-61
2022/08/16 09:48:53;;;;;;;18.50;16.60;;;;;;;33.85;46.50;99821.73;90119;1271;80533;-59
2022/08/16 09:51:02;;;;;;;11.60;9.00;;;;;;;33.81;47.07;99824.57;90122;1270;82609;-59
2022/08/16 09:53:21;;;;;;;10.90;9.60;;;;;;;33.76;46.85;99825.06;90124;1270;97925;-60
2022/08/16 09:55:30;;;;;;;10.30;8.00;;;;;;;33.80;46.38;99832.08;90138;1270;88739;-60
2022/08/16 09:57:40;;;;;;;10.70;8.70;;;;;;;33.64;46.14;99833.63;90103;1270;95341;-59